sensor_id;sensor_type;location;lat;lon;timestamp;temperature;humidity
52889;DHT22;41413;52.770;6.892;2022-11-02T00:02:17;13.30;99.90
52889;DHT22;41413;52.770;6.892;2022-11-02T00:04:43;13.30;99.90
52889;DHT22;41413;52.770;6.892;2022-11-02T00:07:10;13.10;99.90
52889;DHT22;41413;52.770;6.892;2022-11-02T00:09:37;13.00;99.90
52889;DHT22;41413;52.770;6.892;2022-11-02T00:12:04;12.70;99.90
52889;DHT22;41413;52.770;6.892;2022-11-02T00:14:30;12.70;99.90
52889;DHT22;41413;52.770;6.892;2022-11-02T00:16:57;12.70;99.90
52889;DHT22;41413;52.770;6.892;2022-11-02T00:19:24;12.70;99.90
52889;DHT22;41413;52.770;6.892;2022-11-02T00:21:50;12.70;99.90
52889;DHT22;41413;52.770;6.892;2022-11-02T00:24:17;12.70;99.90
52889;DHT22;41413;52.770;6.892;2022-11-02T00:26:43;13.10;99.90
52889;DHT22;41413;52.770;6.892;2022-11-02T00:29:10;12.70;99.90
52889;DHT22;41413;52.770;6.892;2022-11-02T00:31:37;12.70;99.90
52889;DHT22;41413;52.770;6.892;2022-11-02T00:34:03;12.70;99.90
52889;DHT22;41413;52.770;6.892;2022-11-02T00:36:30;13.10;99.90
52889;DHT22;41413;52.770;6.892;2022-11-02T00:38:57;12.80;99.90
52889;DHT22;41413;52.770;6.892;2022-11-02T00:41:23;12.70;99.90
52889;DHT22;41413;52.770;6.892;2022-11-02T00:43:50;12.70;99.90
52889;DHT22;41413;52.770;6.892;2022-11-02T00:46:17;12.70;99.90
52889;DHT22;41413;52.770;6.892;2022-11-02T00:48:43;12.70;99.90
52889;DHT22;41413;52.770;6.892;2022-11-02T00:51:10;12.80;99.90
52889;DHT22;41413;52.770;6.892;2022-11-02T00:53:36;12.80;99.90
52889;DHT22;41413;52.770;6.892;2022-11-02T00:56:03;12.80;99.90
52889;DHT22;41413;52.770;6.892;2022-11-02T00:58:30;12.80;99.90
52889;DHT22;41413;52.770;6.892;2022-11-02T01:00:57;12.70;99.90
52889;DHT22;41413;52.770;6.892;2022-11-02T01:03:23;12.70;99.90
52889;DHT22;41413;52.770;6.892;2022-11-02T01:05:50;13.00;99.90
52889;DHT22;41413;52.770;6.892;2022-11-02T01:08:16;12.70;99.90
52889;DHT22;41413;52.770;6.892;2022-11-02T01:10:43;12.70;99.90
52889;DHT22;41413;52.770;6.892;2022-11-02T01:13:14;12.70;99.90
52889;DHT22;41413;52.770;6.892;2022-11-02T01:15:40;12.80;99.90
52889;DHT22;41413;52.770;6.892;2022-11-02T01:18:08;13.00;99.90
52889;DHT22;41413;52.770;6.892;2022-11-02T01:20:35;13.00;99.90
52889;DHT22;41413;52.770;6.892;2022-11-02T01:23:01;13.10;99.90
52889;DHT22;41413;52.770;6.892;2022-11-02T01:25:28;13.00;99.90
52889;DHT22;41413;52.770;6.892;2022-11-02T01:27:54;13.00;99.90
52889;DHT22;41413;52.770;6.892;2022-11-02T01:30:21;13.00;99.90
52889;DHT22;41413;52.770;6.892;2022-11-02T01:32:48;13.00;99.90
52889;DHT22;41413;52.770;6.892;2022-11-02T01:35:15;13.10;99.90
52889;DHT22;41413;52.770;6.892;2022-11-02T01:37:42;13.10;99.90
52889;DHT22;41413;52.770;6.892;2022-11-02T01:40:09;13.10;99.90
52889;DHT22;41413;52.770;6.892;2022-11-02T01:42:36;13.20;99.90
52889;DHT22;41413;52.770;6.892;2022-11-02T01:45:03;13.20;99.90
52889;DHT22;41413;52.770;6.892;2022-11-02T01:47:37;13.20;99.90
52889;DHT22;41413;52.770;6.892;2022-11-02T01:50:09;13.20;99.90
52889;DHT22;41413;52.770;6.892;2022-11-02T01:52:38;13.20;99.90
52889;DHT22;41413;52.770;6.892;2022-11-02T01:55:09;13.20;99.90
52889;DHT22;41413;52.770;6.892;2022-11-02T01:57:39;13.20;99.90
52889;DHT22;41413;52.770;6.892;2022-11-02T02:00:09;13.20;99.90
52889;DHT22;41413;52.770;6.892;2022-11-02T02:02:47;13.20;99.90
52889;DHT22;41413;52.770;6.892;2022-11-02T02:05:15;13.10;99.90
52889;DHT22;41413;52.770;6.892;2022-11-02T02:07:44;13.10;99.90
52889;DHT22;41413;52.770;6.892;2022-11-02T02:10:11;13.20;99.90
52889;DHT22;41413;52.770;6.892;2022-11-02T02:12:40;13.50;99.90
52889;DHT22;41413;52.770;6.892;2022-11-02T02:15:07;13.20;99.90
52889;DHT22;41413;52.770;6.892;2022-11-02T02:17:50;13.10;99.90
52889;DHT22;41413;52.770;6.892;2022-11-02T02:20:38;13.10;99.90
52889;DHT22;41413;52.770;6.892;2022-11-02T02:25:49;13.00;99.90
52889;DHT22;41413;52.770;6.892;2022-11-02T02:28:18;13.00;99.90
52889;DHT22;41413;52.770;6.892;2022-11-02T02:30:54;12.90;99.90
52889;DHT22;41413;52.770;6.892;2022-11-02T02:33:39;13.10;99.90
52889;DHT22;41413;52.770;6.892;2022-11-02T02:36:28;13.00;99.90
52889;DHT22;41413;52.770;6.892;2022-11-02T02:39:15;13.00;99.90
52889;DHT22;41413;52.770;6.892;2022-11-02T02:41:51;12.90;99.90
52889;DHT22;41413;52.770;6.892;2022-11-02T02:44:22;12.80;99.90
52889;DHT22;41413;52.770;6.892;2022-11-02T02:47:01;12.70;99.90
52889;DHT22;41413;52.770;6.892;2022-11-02T02:49:56;12.60;99.90
52889;DHT22;41413;52.770;6.892;2022-11-02T02:52:26;12.60;99.90
52889;DHT22;41413;52.770;6.892;2022-11-02T02:54:56;12.60;99.90
52889;DHT22;41413;52.770;6.892;2022-11-02T02:57:26;12.60;99.90
52889;DHT22;41413;52.770;6.892;2022-11-02T02:59:55;12.50;99.90
52889;DHT22;41413;52.770;6.892;2022-11-02T03:02:29;12.60;99.90
52889;DHT22;41413;52.770;6.892;2022-11-02T03:04:57;12.50;99.90
52889;DHT22;41413;52.770;6.892;2022-11-02T03:07:28;12.50;99.90
52889;DHT22;41413;52.770;6.892;2022-11-02T03:10:43;12.50;99.90
52889;DHT22;41413;52.770;6.892;2022-11-02T03:18:45;12.50;99.90
52889;DHT22;41413;52.770;6.892;2022-11-02T03:21:22;12.40;99.90
52889;DHT22;41413;52.770;6.892;2022-11-02T03:23:58;12.30;99.90
52889;DHT22;41413;52.770;6.892;2022-11-02T03:26:32;12.20;99.90
52889;DHT22;41413;52.770;6.892;2022-11-02T03:31:57;12.10;99.90
52889;DHT22;41413;52.770;6.892;2022-11-02T03:34:45;12.00;99.90
52889;DHT22;41413;52.770;6.892;2022-11-02T03:37:26;12.00;99.90
52889;DHT22;41413;52.770;6.892;2022-11-02T03:40:04;12.00;99.90
52889;DHT22;41413;52.770;6.892;2022-11-02T03:42:34;11.90;99.90
52889;DHT22;41413;52.770;6.892;2022-11-02T03:45:26;12.00;99.90
52889;DHT22;41413;52.770;6.892;2022-11-02T03:47:59;11.80;99.90
52889;DHT22;41413;52.770;6.892;2022-11-02T03:50:27;11.80;99.90
52889;DHT22;41413;52.770;6.892;2022-11-02T03:53:09;11.80;99.90
52889;DHT22;41413;52.770;6.892;2022-11-02T03:55:49;11.80;99.90
52889;DHT22;41413;52.770;6.892;2022-11-02T03:58:18;11.80;99.90
52889;DHT22;41413;52.770;6.892;2022-11-02T04:00:52;11.70;99.90
52889;DHT22;41413;52.770;6.892;2022-11-02T04:03:21;11.70;99.90
52889;DHT22;41413;52.770;6.892;2022-11-02T04:05:49;11.80;99.90
52889;DHT22;41413;52.770;6.892;2022-11-02T04:08:21;11.80;99.90
52889;DHT22;41413;52.770;6.892;2022-11-02T04:10:49;11.80;99.90
52889;DHT22;41413;52.770;6.892;2022-11-02T04:13:35;11.70;99.90
52889;DHT22;41413;52.770;6.892;2022-11-02T04:16:21;11.70;99.90
52889;DHT22;41413;52.770;6.892;2022-11-02T04:18:54;11.70;99.90
52889;DHT22;41413;52.770;6.892;2022-11-02T04:21:39;11.70;99.90
52889;DHT22;41413;52.770;6.892;2022-11-02T04:24:07;11.70;99.90
52889;DHT22;41413;52.770;6.892;2022-11-02T04:26:52;11.60;99.90
52889;DHT22;41413;52.770;6.892;2022-11-02T04:29:19;11.50;99.90
52889;DHT22;41413;52.770;6.892;2022-11-02T04:31:45;11.50;99.90
52889;DHT22;41413;52.770;6.892;2022-11-02T04:34:12;11.50;99.90
52889;DHT22;41413;52.770;6.892;2022-11-02T04:36:38;11.50;99.90
52889;DHT22;41413;52.770;6.892;2022-11-02T04:39:06;11.50;99.90
52889;DHT22;41413;52.770;6.892;2022-11-02T04:41:33;11.50;99.90
52889;DHT22;41413;52.770;6.892;2022-11-02T04:44:13;11.60;99.90
52889;DHT22;41413;52.770;6.892;2022-11-02T04:46:41;11.50;99.90
52889;DHT22;41413;52.770;6.892;2022-11-02T04:49:09;11.50;99.90
52889;DHT22;41413;52.770;6.892;2022-11-02T04:51:36;11.50;99.90
52889;DHT22;41413;52.770;6.892;2022-11-02T04:54:05;11.70;99.90
52889;DHT22;41413;52.770;6.892;2022-11-02T04:56:32;11.60;99.90
52889;DHT22;41413;52.770;6.892;2022-11-02T04:59:00;11.60;99.90
52889;DHT22;41413;52.770;6.892;2022-11-02T05:01:28;11.60;99.90
52889;DHT22;41413;52.770;6.892;2022-11-02T05:03:55;11.70;99.90
52889;DHT22;41413;52.770;6.892;2022-11-02T05:06:23;11.70;99.90
52889;DHT22;41413;52.770;6.892;2022-11-02T05:08:50;11.60;99.90
52889;DHT22;41413;52.770;6.892;2022-11-02T05:11:17;11.60;99.90
52889;DHT22;41413;52.770;6.892;2022-11-02T05:13:44;11.50;99.90
52889;DHT22;41413;52.770;6.892;2022-11-02T05:16:13;11.50;99.90
52889;DHT22;41413;52.770;6.892;2022-11-02T05:18:39;11.40;99.90
52889;DHT22;41413;52.770;6.892;2022-11-02T05:21:08;11.50;99.90
52889;DHT22;41413;52.770;6.892;2022-11-02T05:23:35;11.50;99.90
52889;DHT22;41413;52.770;6.892;2022-11-02T05:26:05;11.50;99.90
52889;DHT22;41413;52.770;6.892;2022-11-02T05:28:32;11.50;99.90
52889;DHT22;41413;52.770;6.892;2022-11-02T05:31:00;11.50;99.90
52889;DHT22;41413;52.770;6.892;2022-11-02T05:33:28;11.50;99.90
52889;DHT22;41413;52.770;6.892;2022-11-02T05:35:57;11.60;99.90
52889;DHT22;41413;52.770;6.892;2022-11-02T05:38:25;11.60;99.90
52889;DHT22;41413;52.770;6.892;2022-11-02T05:40:53;11.60;99.90
52889;DHT22;41413;52.770;6.892;2022-11-02T05:43:21;11.60;99.90
52889;DHT22;41413;52.770;6.892;2022-11-02T05:45:51;11.60;99.90
52889;DHT22;41413;52.770;6.892;2022-11-02T05:48:18;11.50;99.90
52889;DHT22;41413;52.770;6.892;2022-11-02T05:50:45;11.40;99.90
52889;DHT22;41413;52.770;6.892;2022-11-02T05:53:12;11.40;99.90
52889;DHT22;41413;52.770;6.892;2022-11-02T05:55:38;11.20;99.90
52889;DHT22;41413;52.770;6.892;2022-11-02T05:58:05;11.20;99.90
52889;DHT22;41413;52.770;6.892;2022-11-02T06:00:32;11.10;99.90
52889;DHT22;41413;52.770;6.892;2022-11-02T06:02:58;11.10;99.90
52889;DHT22;41413;52.770;6.892;2022-11-02T06:05:25;11.00;99.90
52889;DHT22;41413;52.770;6.892;2022-11-02T06:07:53;11.00;99.90
52889;DHT22;41413;52.770;6.892;2022-11-02T06:10:22;11.00;99.90
52889;DHT22;41413;52.770;6.892;2022-11-02T06:12:56;11.00;99.90
52889;DHT22;41413;52.770;6.892;2022-11-02T06:15:23;11.00;99.90
52889;DHT22;41413;52.770;6.892;2022-11-02T06:17:50;11.10;99.90
52889;DHT22;41413;52.770;6.892;2022-11-02T06:20:17;11.10;99.90
52889;DHT22;41413;52.770;6.892;2022-11-02T06:22:44;11.10;99.90
52889;DHT22;41413;52.770;6.892;2022-11-02T06:25:11;11.10;99.90
52889;DHT22;41413;52.770;6.892;2022-11-02T06:27:38;11.20;99.90
52889;DHT22;41413;52.770;6.892;2022-11-02T06:30:11;11.20;99.90
52889;DHT22;41413;52.770;6.892;2022-11-02T06:32:38;11.20;99.90
52889;DHT22;41413;52.770;6.892;2022-11-02T06:35:05;11.20;99.90
52889;DHT22;41413;52.770;6.892;2022-11-02T06:37:33;11.20;99.90
52889;DHT22;41413;52.770;6.892;2022-11-02T06:40:00;11.20;99.90
52889;DHT22;41413;52.770;6.892;2022-11-02T06:42:27;11.10;99.90
52889;DHT22;41413;52.770;6.892;2022-11-02T06:44:53;11.10;99.90
52889;DHT22;41413;52.770;6.892;2022-11-02T06:47:20;11.10;99.90
52889;DHT22;41413;52.770;6.892;2022-11-02T06:49:47;11.00;99.90
52889;DHT22;41413;52.770;6.892;2022-11-02T06:52:14;11.10;99.90
52889;DHT22;41413;52.770;6.892;2022-11-02T06:54:40;11.00;99.90
52889;DHT22;41413;52.770;6.892;2022-11-02T06:57:07;11.00;99.90
52889;DHT22;41413;52.770;6.892;2022-11-02T06:59:33;11.00;99.90
52889;DHT22;41413;52.770;6.892;2022-11-02T07:02:00;10.90;99.90
52889;DHT22;41413;52.770;6.892;2022-11-02T07:04:27;10.90;99.90
52889;DHT22;41413;52.770;6.892;2022-11-02T07:06:53;10.90;99.90
52889;DHT22;41413;52.770;6.892;2022-11-02T07:09:20;11.00;99.90
52889;DHT22;41413;52.770;6.892;2022-11-02T07:11:47;11.00;99.90
52889;DHT22;41413;52.770;6.892;2022-11-02T07:14:13;11.00;99.90
52889;DHT22;41413;52.770;6.892;2022-11-02T07:16:40;11.00;99.90
52889;DHT22;41413;52.770;6.892;2022-11-02T07:19:06;11.00;99.90
52889;DHT22;41413;52.770;6.892;2022-11-02T07:21:33;11.00;99.90
52889;DHT22;41413;52.770;6.892;2022-11-02T07:24:00;11.10;99.90
52889;DHT22;41413;52.770;6.892;2022-11-02T07:26:26;11.10;99.90
52889;DHT22;41413;52.770;6.892;2022-11-02T07:28:53;11.10;99.90
52889;DHT22;41413;52.770;6.892;2022-11-02T07:31:24;11.20;99.90
52889;DHT22;41413;52.770;6.892;2022-11-02T07:33:51;11.40;99.90
52889;DHT22;41413;52.770;6.892;2022-11-02T07:36:17;11.60;99.90
52889;DHT22;41413;52.770;6.892;2022-11-02T07:38:44;11.60;99.90
52889;DHT22;41413;52.770;6.892;2022-11-02T07:41:11;11.80;99.90
52889;DHT22;41413;52.770;6.892;2022-11-02T07:43:37;12.20;99.90
52889;DHT22;41413;52.770;6.892;2022-11-02T07:46:09;12.40;99.90
52889;DHT22;41413;52.770;6.892;2022-11-02T07:48:36;12.30;99.90
52889;DHT22;41413;52.770;6.892;2022-11-02T07:51:03;12.50;99.90
52889;DHT22;41413;52.770;6.892;2022-11-02T07:53:31;12.30;99.90
52889;DHT22;41413;52.770;6.892;2022-11-02T07:56:01;12.10;99.90
52889;DHT22;41413;52.770;6.892;2022-11-02T07:58:28;12.00;99.90
52889;DHT22;41413;52.770;6.892;2022-11-02T08:00:58;12.20;99.90
52889;DHT22;41413;52.770;6.892;2022-11-02T08:03:26;12.10;99.90
52889;DHT22;41413;52.770;6.892;2022-11-02T08:05:53;12.00;99.90
52889;DHT22;41413;52.770;6.892;2022-11-02T08:08:22;12.10;99.90
52889;DHT22;41413;52.770;6.892;2022-11-02T08:10:50;12.30;99.90
52889;DHT22;41413;52.770;6.892;2022-11-02T08:13:23;12.10;99.90
52889;DHT22;41413;52.770;6.892;2022-11-02T08:15:52;12.00;99.90
52889;DHT22;41413;52.770;6.892;2022-11-02T08:18:21;12.20;99.90
52889;DHT22;41413;52.770;6.892;2022-11-02T08:20:48;12.30;99.90
52889;DHT22;41413;52.770;6.892;2022-11-02T08:23:17;12.30;99.90
52889;DHT22;41413;52.770;6.892;2022-11-02T08:25:45;12.30;99.90
52889;DHT22;41413;52.770;6.892;2022-11-02T08:28:17;12.30;99.90
52889;DHT22;41413;52.770;6.892;2022-11-02T08:30:44;12.60;99.90
52889;DHT22;41413;52.770;6.892;2022-11-02T08:33:12;13.60;99.90
52889;DHT22;41413;52.770;6.892;2022-11-02T08:35:42;14.20;99.90
52889;DHT22;41413;52.770;6.892;2022-11-02T08:38:09;14.00;99.90
52889;DHT22;41413;52.770;6.892;2022-11-02T08:40:36;13.90;99.90
52889;DHT22;41413;52.770;6.892;2022-11-02T08:43:05;13.80;99.90
52889;DHT22;41413;52.770;6.892;2022-11-02T08:45:33;13.30;99.90
52889;DHT22;41413;52.770;6.892;2022-11-02T08:48:20;13.20;99.90
52889;DHT22;41413;52.770;6.892;2022-11-02T08:50:47;13.10;99.90
52889;DHT22;41413;52.770;6.892;2022-11-02T08:53:15;12.90;99.90
52889;DHT22;41413;52.770;6.892;2022-11-02T08:55:41;13.20;99.90
52889;DHT22;41413;52.770;6.892;2022-11-02T08:58:08;13.30;99.90
52889;DHT22;41413;52.770;6.892;2022-11-02T09:00:35;13.40;99.90
52889;DHT22;41413;52.770;6.892;2022-11-02T09:03:06;13.60;99.90
52889;DHT22;41413;52.770;6.892;2022-11-02T09:05:45;13.70;99.90
52889;DHT22;41413;52.770;6.892;2022-11-02T09:08:17;13.60;99.90
52889;DHT22;41413;52.770;6.892;2022-11-02T09:10:49;13.30;99.90
52889;DHT22;41413;52.770;6.892;2022-11-02T09:13:17;13.20;99.90
52889;DHT22;41413;52.770;6.892;2022-11-02T09:15:53;13.40;99.90
52889;DHT22;41413;52.770;6.892;2022-11-02T09:18:21;13.50;99.90
52889;DHT22;41413;52.770;6.892;2022-11-02T09:20:48;13.90;99.90
52889;DHT22;41413;52.770;6.892;2022-11-02T09:23:17;14.30;99.90
52889;DHT22;41413;52.770;6.892;2022-11-02T09:25:45;14.30;99.90
52889;DHT22;41413;52.770;6.892;2022-11-02T09:28:11;14.20;99.90
52889;DHT22;41413;52.770;6.892;2022-11-02T09:30:39;13.80;99.90
52889;DHT22;41413;52.770;6.892;2022-11-02T09:33:06;13.50;99.90
52889;DHT22;41413;52.770;6.892;2022-11-02T09:35:36;13.70;99.90
52889;DHT22;41413;52.770;6.892;2022-11-02T09:38:04;13.60;99.90
52889;DHT22;41413;52.770;6.892;2022-11-02T09:40:44;13.40;99.90
52889;DHT22;41413;52.770;6.892;2022-11-02T09:48:19;13.90;99.90
52889;DHT22;41413;52.770;6.892;2022-11-02T09:51:11;13.70;99.90
52889;DHT22;41413;52.770;6.892;2022-11-02T09:56:29;14.10;99.90
52889;DHT22;41413;52.770;6.892;2022-11-02T09:59:03;14.20;99.90
52889;DHT22;41413;52.770;6.892;2022-11-02T10:01:41;14.40;99.90
52889;DHT22;41413;52.770;6.892;2022-11-02T10:15:42;14.40;99.90
52889;DHT22;41413;52.770;6.892;2022-11-02T10:18:27;14.50;99.90
52889;DHT22;41413;52.770;6.892;2022-11-02T10:20:58;14.50;99.90
52889;DHT22;41413;52.770;6.892;2022-11-02T10:23:32;14.50;99.90
52889;DHT22;41413;52.770;6.892;2022-11-02T10:26:00;14.50;99.90
52889;DHT22;41413;52.770;6.892;2022-11-02T10:28:33;14.30;99.90
52889;DHT22;41413;52.770;6.892;2022-11-02T10:31:01;14.50;99.90
52889;DHT22;41413;52.770;6.892;2022-11-02T10:33:30;14.90;99.90
52889;DHT22;41413;52.770;6.892;2022-11-02T10:36:08;15.20;99.90
52889;DHT22;41413;52.770;6.892;2022-11-02T10:39:16;15.40;99.90
52889;DHT22;41413;52.770;6.892;2022-11-02T10:41:59;15.00;99.90
52889;DHT22;41413;52.770;6.892;2022-11-02T10:47:38;15.30;99.90
52889;DHT22;41413;52.770;6.892;2022-11-02T10:52:49;15.60;99.90
52889;DHT22;41413;52.770;6.892;2022-11-02T10:55:25;14.90;99.90
52889;DHT22;41413;52.770;6.892;2022-11-02T10:57:54;14.90;99.90
52889;DHT22;41413;52.770;6.892;2022-11-02T11:00:30;15.10;99.90
52889;DHT22;41413;52.770;6.892;2022-11-02T11:03:06;15.00;99.90
52889;DHT22;41413;52.770;6.892;2022-11-02T11:05:35;15.20;99.90
52889;DHT22;41413;52.770;6.892;2022-11-02T11:08:04;15.20;99.90
52889;DHT22;41413;52.770;6.892;2022-11-02T11:10:36;15.60;99.90
52889;DHT22;41413;52.770;6.892;2022-11-02T11:13:04;15.40;99.90
52889;DHT22;41413;52.770;6.892;2022-11-02T11:15:32;15.20;99.90
52889;DHT22;41413;52.770;6.892;2022-11-02T11:18:18;15.20;99.90
52889;DHT22;41413;52.770;6.892;2022-11-02T11:21:05;15.40;99.90
52889;DHT22;41413;52.770;6.892;2022-11-02T11:23:32;15.50;99.90
52889;DHT22;41413;52.770;6.892;2022-11-02T11:26:04;15.50;99.90
52889;DHT22;41413;52.770;6.892;2022-11-02T11:28:40;15.60;99.90
52889;DHT22;41413;52.770;6.892;2022-11-02T11:31:17;15.70;99.90
52889;DHT22;41413;52.770;6.892;2022-11-02T11:33:53;15.30;99.90
52889;DHT22;41413;52.770;6.892;2022-11-02T11:36:41;15.10;99.90
52889;DHT22;41413;52.770;6.892;2022-11-02T11:39:25;14.70;99.90
52889;DHT22;41413;52.770;6.892;2022-11-02T11:41:54;14.70;99.90
52889;DHT22;41413;52.770;6.892;2022-11-02T11:44:21;14.70;99.90
52889;DHT22;41413;52.770;6.892;2022-11-02T11:46:51;14.60;99.90
52889;DHT22;41413;52.770;6.892;2022-11-02T11:49:28;14.80;99.90
52889;DHT22;41413;52.770;6.892;2022-11-02T11:52:28;14.80;99.90
52889;DHT22;41413;52.770;6.892;2022-11-02T11:57:44;14.80;99.90
52889;DHT22;41413;52.770;6.892;2022-11-02T12:00:26;14.80;99.90
52889;DHT22;41413;52.770;6.892;2022-11-02T12:03:08;14.40;99.90
52889;DHT22;41413;52.770;6.892;2022-11-02T12:11:29;14.40;99.90
52889;DHT22;41413;52.770;6.892;2022-11-02T12:16:50;14.30;99.90
52889;DHT22;41413;52.770;6.892;2022-11-02T12:22:12;14.10;99.90
52889;DHT22;41413;52.770;6.892;2022-11-02T12:38:51;15.10;99.90
52889;DHT22;41413;52.770;6.892;2022-11-02T12:41:36;15.00;99.90
52889;DHT22;41413;52.770;6.892;2022-11-02T12:47:30;14.50;99.90
52889;DHT22;41413;52.770;6.892;2022-11-02T12:55:46;14.50;99.90
52889;DHT22;41413;52.770;6.892;2022-11-02T12:58:24;14.50;99.90
52889;DHT22;41413;52.770;6.892;2022-11-02T13:01:00;14.50;99.90
52889;DHT22;41413;52.770;6.892;2022-11-02T13:06:57;14.40;99.90
52889;DHT22;41413;52.770;6.892;2022-11-02T13:09:24;14.30;99.90
52889;DHT22;41413;52.770;6.892;2022-11-02T13:12:00;14.50;99.90
52889;DHT22;41413;52.770;6.892;2022-11-02T13:14:37;14.80;99.90
52889;DHT22;41413;52.770;6.892;2022-11-02T13:19:54;15.10;99.90
52889;DHT22;41413;52.770;6.892;2022-11-02T13:22:29;15.10;99.90
52889;DHT22;41413;52.770;6.892;2022-11-02T13:25:26;15.10;99.90
52889;DHT22;41413;52.770;6.892;2022-11-02T13:27:57;15.00;99.90
52889;DHT22;41413;52.770;6.892;2022-11-02T13:30:32;15.00;99.90
52889;DHT22;41413;52.770;6.892;2022-11-02T13:33:13;15.00;99.90
52889;DHT22;41413;52.770;6.892;2022-11-02T13:35:42;14.90;99.90
52889;DHT22;41413;52.770;6.892;2022-11-02T13:40:48;14.80;99.90
52889;DHT22;41413;52.770;6.892;2022-11-02T13:52:09;14.90;99.90
52889;DHT22;41413;52.770;6.892;2022-11-02T13:54:45;14.90;99.90
52889;DHT22;41413;52.770;6.892;2022-11-02T13:59:54;15.00;99.90
52889;DHT22;41413;52.770;6.892;2022-11-02T14:02:21;14.80;99.90
52889;DHT22;41413;52.770;6.892;2022-11-02T14:04:50;14.70;99.90
52889;DHT22;41413;52.770;6.892;2022-11-02T14:07:33;14.50;99.90
52889;DHT22;41413;52.770;6.892;2022-11-02T14:10:14;14.50;99.90
52889;DHT22;41413;52.770;6.892;2022-11-02T14:12:47;14.60;99.90
52889;DHT22;41413;52.770;6.892;2022-11-02T14:20:39;14.80;99.90
52889;DHT22;41413;52.770;6.892;2022-11-02T14:25:53;14.60;99.90
52889;DHT22;41413;52.770;6.892;2022-11-02T14:47:15;14.30;99.90
52889;DHT22;41413;52.770;6.892;2022-11-02T14:49:49;14.20;99.90
52889;DHT22;41413;52.770;6.892;2022-11-02T14:52:30;14.20;99.90
52889;DHT22;41413;52.770;6.892;2022-11-02T14:55:07;14.20;99.90
52889;DHT22;41413;52.770;6.892;2022-11-02T14:57:36;14.20;99.90
52889;DHT22;41413;52.770;6.892;2022-11-02T15:00:20;14.10;99.90
52889;DHT22;41413;52.770;6.892;2022-11-02T15:02:48;14.00;99.90
52889;DHT22;41413;52.770;6.892;2022-11-02T15:05:36;14.00;99.90
52889;DHT22;41413;52.770;6.892;2022-11-02T15:08:24;13.90;99.90
52889;DHT22;41413;52.770;6.892;2022-11-02T15:10:52;13.90;99.90
52889;DHT22;41413;52.770;6.892;2022-11-02T15:26:46;13.60;99.90
52889;DHT22;41413;52.770;6.892;2022-11-02T15:31:55;13.50;99.90
52889;DHT22;41413;52.770;6.892;2022-11-02T15:34:32;13.50;99.90
52889;DHT22;41413;52.770;6.892;2022-11-02T15:37:01;13.50;99.90
52889;DHT22;41413;52.770;6.892;2022-11-02T15:39:29;13.40;99.90
52889;DHT22;41413;52.770;6.892;2022-11-02T16:02:17;12.90;99.90
52889;DHT22;41413;52.770;6.892;2022-11-02T16:04:47;12.90;99.90
52889;DHT22;41413;52.770;6.892;2022-11-02T16:07:16;12.80;99.90
52889;DHT22;41413;52.770;6.892;2022-11-02T16:09:44;12.80;99.90
52889;DHT22;41413;52.770;6.892;2022-11-02T16:12:19;12.70;99.90
52889;DHT22;41413;52.770;6.892;2022-11-02T16:14:52;12.70;99.90
52889;DHT22;41413;52.770;6.892;2022-11-02T16:17:23;12.60;99.90
52889;DHT22;41413;52.770;6.892;2022-11-02T16:19:51;12.70;99.90
52889;DHT22;41413;52.770;6.892;2022-11-02T16:22:22;12.60;99.90
52889;DHT22;41413;52.770;6.892;2022-11-02T16:24:52;12.50;99.90
52889;DHT22;41413;52.770;6.892;2022-11-02T16:27:22;12.50;99.90
52889;DHT22;41413;52.770;6.892;2022-11-02T16:29:50;12.40;99.90
52889;DHT22;41413;52.770;6.892;2022-11-02T16:32:17;12.40;99.90
52889;DHT22;41413;52.770;6.892;2022-11-02T16:34:44;12.40;99.90
52889;DHT22;41413;52.770;6.892;2022-11-02T16:37:12;12.30;99.90
52889;DHT22;41413;52.770;6.892;2022-11-02T16:39:44;12.30;99.90
52889;DHT22;41413;52.770;6.892;2022-11-02T16:42:20;12.20;99.90
52889;DHT22;41413;52.770;6.892;2022-11-02T16:44:56;12.20;99.90
52889;DHT22;41413;52.770;6.892;2022-11-02T16:47:32;12.10;99.90
52889;DHT22;41413;52.770;6.892;2022-11-02T16:50:00;12.10;99.90
52889;DHT22;41413;52.770;6.892;2022-11-02T16:52:31;12.00;99.90
52889;DHT22;41413;52.770;6.892;2022-11-02T16:54:57;12.00;99.90
52889;DHT22;41413;52.770;6.892;2022-11-02T16:57:30;12.00;99.90
52889;DHT22;41413;52.770;6.892;2022-11-02T17:00:03;12.00;99.90
52889;DHT22;41413;52.770;6.892;2022-11-02T17:02:34;11.90;99.90
52889;DHT22;41413;52.770;6.892;2022-11-02T17:05:03;11.90;99.90
52889;DHT22;41413;52.770;6.892;2022-11-02T17:07:37;11.90;99.90
52889;DHT22;41413;52.770;6.892;2022-11-02T17:10:04;11.80;99.90
52889;DHT22;41413;52.770;6.892;2022-11-02T17:12:37;11.80;99.90
52889;DHT22;41413;52.770;6.892;2022-11-02T17:15:17;11.80;99.90
52889;DHT22;41413;52.770;6.892;2022-11-02T17:17:45;11.80;99.90
52889;DHT22;41413;52.770;6.892;2022-11-02T17:22:50;11.70;99.90
52889;DHT22;41413;52.770;6.892;2022-11-02T17:25:35;11.70;99.90
52889;DHT22;41413;52.770;6.892;2022-11-02T17:28:25;11.70;99.90
52889;DHT22;41413;52.770;6.892;2022-11-02T17:30:51;11.70;99.90
52889;DHT22;41413;52.770;6.892;2022-11-02T17:35:51;11.60;99.90
52889;DHT22;41413;52.770;6.892;2022-11-02T17:38:22;11.60;99.90
52889;DHT22;41413;52.770;6.892;2022-11-02T17:40:50;11.60;99.90
52889;DHT22;41413;52.770;6.892;2022-11-02T17:43:22;11.60;99.90
52889;DHT22;41413;52.770;6.892;2022-11-02T17:45:56;11.60;99.90
52889;DHT22;41413;52.770;6.892;2022-11-02T17:48:24;11.60;99.90
52889;DHT22;41413;52.770;6.892;2022-11-02T17:50:52;11.50;99.90
52889;DHT22;41413;52.770;6.892;2022-11-02T17:53:20;11.50;99.90
52889;DHT22;41413;52.770;6.892;2022-11-02T17:55:47;11.50;99.90
52889;DHT22;41413;52.770;6.892;2022-11-02T17:58:14;11.50;99.90
52889;DHT22;41413;52.770;6.892;2022-11-02T18:00:41;11.50;99.90
52889;DHT22;41413;52.770;6.892;2022-11-02T18:03:17;11.40;99.90
52889;DHT22;41413;52.770;6.892;2022-11-02T18:05:46;11.50;99.90
52889;DHT22;41413;52.770;6.892;2022-11-02T18:08:17;11.50;99.90
52889;DHT22;41413;52.770;6.892;2022-11-02T18:10:45;11.50;99.90
52889;DHT22;41413;52.770;6.892;2022-11-02T18:13:14;11.50;99.90
52889;DHT22;41413;52.770;6.892;2022-11-02T18:15:41;11.50;99.90
52889;DHT22;41413;52.770;6.892;2022-11-02T18:18:09;11.40;99.90
52889;DHT22;41413;52.770;6.892;2022-11-02T18:20:36;11.50;99.90
52889;DHT22;41413;52.770;6.892;2022-11-02T18:23:13;11.40;99.90
52889;DHT22;41413;52.770;6.892;2022-11-02T18:25:40;11.60;99.90
52889;DHT22;41413;52.770;6.892;2022-11-02T18:28:07;11.40;99.90
52889;DHT22;41413;52.770;6.892;2022-11-02T18:30:34;11.50;99.90
52889;DHT22;41413;52.770;6.892;2022-11-02T18:33:01;11.50;99.90
52889;DHT22;41413;52.770;6.892;2022-11-02T18:35:28;11.50;99.90
52889;DHT22;41413;52.770;6.892;2022-11-02T18:37:55;12.00;99.90